sensor_id;sensor_type;location;lat;lon;timestamp;pressure;altitude;pressure_sealevel;temperature;humidity
6393;BME280;3229;42.674;23.282;2023-04-08T00:01:49;94687.72;;;10.81;48.61
6393;BME280;3229;42.674;23.282;2023-04-08T00:04:16;94684.63;;;10.77;48.66
6393;BME280;3229;42.674;23.282;2023-04-08T00:06:44;94687.88;;;10.79;48.61
6393;BME280;3229;42.674;23.282;2023-04-08T00:09:11;94684.78;;;10.76;48.81
6393;BME280;3229;42.674;23.282;2023-04-08T00:11:38;94690.00;;;10.74;48.78
6393;BME280;3229;42.674;23.282;2023-04-08T00:14:05;94685.03;;;10.73;48.85
6393;BME280;3229;42.674;23.282;2023-04-08T00:16:32;94691.50;;;10.77;48.75
6393;BME280;3229;42.674;23.282;2023-04-08T00:18:58;94684.09;;;10.74;49.01
6393;BME280;3229;42.674;23.282;2023-04-08T00:21:25;94686.53;;;10.75;49.13
6393;BME280;3229;42.674;23.282;2023-04-08T00:23:53;94680.72;;;10.73;49.00
6393;BME280;3229;42.674;23.282;2023-04-08T00:26:21;94681.84;;;10.71;49.02
6393;BME280;3229;42.674;23.282;2023-04-08T00:28:47;94679.53;;;10.68;49.16
6393;BME280;3229;42.674;23.282;2023-04-08T00:31:14;94681.69;;;10.72;49.12
6393;BME280;3229;42.674;23.282;2023-04-08T00:33:41;94680.19;;;10.70;49.21
6393;BME280;3229;42.674;23.282;2023-04-08T00:36:08;94682.75;;;10.70;49.22
6393;BME280;3229;42.674;23.282;2023-04-08T00:38:35;94681.94;;;10.69;49.23
6393;BME280;3229;42.674;23.282;2023-04-08T00:41:03;94682.91;;;10.68;49.36
6393;BME280;3229;42.674;23.282;2023-04-08T00:43:30;94683.97;;;10.66;49.30
6393;BME280;3229;42.674;23.282;2023-04-08T00:45:57;94681.56;;;10.64;49.22
6393;BME280;3229;42.674;23.282;2023-04-08T00:48:23;94681.72;;;10.63;49.37
6393;BME280;3229;42.674;23.282;2023-04-08T00:50:50;94691.53;;;10.67;49.45
6393;BME280;3229;42.674;23.282;2023-04-08T00:53:18;94693.28;;;10.67;49.39
6393;BME280;3229;42.674;23.282;2023-04-08T00:55:45;94689.09;;;10.66;49.64
6393;BME280;3229;42.674;23.282;2023-04-08T00:58:13;94693.28;;;10.67;49.49
6393;BME280;3229;42.674;23.282;2023-04-08T01:00:44;94684.13;;;10.64;49.81
6393;BME280;3229;42.674;23.282;2023-04-08T01:03:15;94690.72;;;10.67;49.65
6393;BME280;3229;42.674;23.282;2023-04-08T01:05:48;94688.97;;;10.67;49.57
6393;BME280;3229;42.674;23.282;2023-04-08T01:08:20;94693.28;;;10.67;49.61
6393;BME280;3229;42.674;23.282;2023-04-08T01:10:50;94687.63;;;10.63;49.73
6393;BME280;3229;42.674;23.282;2023-04-08T01:13:21;94690.31;;;10.62;49.76
6393;BME280;3229;42.674;23.282;2023-04-08T01:15:49;94699.63;;;10.63;49.75
6393;BME280;3229;42.674;23.282;2023-04-08T01:18:16;94693.69;;;10.62;49.77
6393;BME280;3229;42.674;23.282;2023-04-08T01:20:44;94702.03;;;10.64;49.82
6393;BME280;3229;42.674;23.282;2023-04-08T01:23:17;94675.25;;;10.49;49.82
6393;BME280;3229;42.674;23.282;2023-04-08T01:25:48;94698.50;;;10.65;49.80
6393;BME280;3229;42.674;23.282;2023-04-08T01:28:17;94696.75;;;10.66;49.90
6393;BME280;3229;42.674;23.282;2023-04-08T01:30:45;94701.88;;;10.66;49.96
6393;BME280;3229;42.674;23.282;2023-04-08T01:33:15;94693.69;;;10.62;49.77
6393;BME280;3229;42.674;23.282;2023-04-08T01:35:43;94699.31;;;10.66;49.91
6393;BME280;3229;42.674;23.282;2023-04-08T01:38:17;94660.63;;;10.41;50.19
6393;BME280;3229;42.674;23.282;2023-04-08T01:40:46;94694.50;;;10.63;50.05
6393;BME280;3229;42.674;23.282;2023-04-08T01:43:16;94697.06;;;10.63;50.06
6393;BME280;3229;42.674;23.282;2023-04-08T01:45:44;94696.25;;;10.62;49.97
6393;BME280;3229;42.674;23.282;2023-04-08T01:48:12;94701.38;;;10.62;50.02
6393;BME280;3229;42.674;23.282;2023-04-08T01:50:40;94700.53;;;10.62;50.26
6393;BME280;3229;42.674;23.282;2023-04-08T01:53:08;94622.44;;;10.11;50.26
6393;BME280;3229;42.674;23.282;2023-04-08T01:55:36;94696.13;;;10.54;50.29
6393;BME280;3229;42.674;23.282;2023-04-08T01:58:05;94698.28;;;10.59;50.24
6393;BME280;3229;42.674;23.282;2023-04-08T02:00:35;94698.53;;;10.55;50.23
6393;BME280;3229;42.674;23.282;2023-04-08T02:03:04;94713.47;;;10.60;50.33
6393;BME280;3229;42.674;23.282;2023-04-08T02:05:33;94714.41;;;10.59;50.36
6393;BME280;3229;42.674;23.282;2023-04-08T02:08:00;94728.97;;;10.59;50.51
6393;BME280;3229;42.674;23.282;2023-04-08T02:10:27;94715.63;;;10.55;50.48
6393;BME280;3229;42.674;23.282;2023-04-08T02:12:54;94718.06;;;10.57;50.50
6393;BME280;3229;42.674;23.282;2023-04-08T02:15:21;94721.41;;;10.57;50.59
6393;BME280;3229;42.674;23.282;2023-04-08T02:17:51;94717.66;;;10.51;50.63
6393;BME280;3229;42.674;23.282;2023-04-08T02:20:22;94708.09;;;10.44;50.48
6393;BME280;3229;42.674;23.282;2023-04-08T02:22:56;94719.94;;;10.54;50.53
6393;BME280;3229;42.674;23.282;2023-04-08T02:25:25;94718.19;;;10.55;50.72
6393;BME280;3229;42.674;23.282;2023-04-08T02:27:55;94724.53;;;10.51;50.56
6393;BME280;3229;42.674;23.282;2023-04-08T02:30:23;94723.47;;;10.53;50.61
6393;BME280;3229;42.674;23.282;2023-04-08T02:32:52;94716.84;;;10.51;50.69
6393;BME280;3229;42.674;23.282;2023-04-08T02:35:19;94714.16;;;10.52;50.63
6393;BME280;3229;42.674;23.282;2023-04-08T02:37:46;94717.66;;;10.51;50.75
6393;BME280;3229;42.674;23.282;2023-04-08T02:40:24;94723.56;;;10.52;50.84
6393;BME280;3229;42.674;23.282;2023-04-08T02:42:51;94722.78;;;10.51;51.10
6393;BME280;3229;42.674;23.282;2023-04-08T02:45:18;94724.53;;;10.51;50.73
6393;BME280;3229;42.674;23.282;2023-04-08T02:47:45;94723.72;;;10.50;50.85
6393;BME280;3229;42.674;23.282;2023-04-08T02:50:14;94702.59;;;10.39;50.82
6393;BME280;3229;42.674;23.282;2023-04-08T02:52:40;94717.25;;;10.46;50.92
6393;BME280;3229;42.674;23.282;2023-04-08T02:55:09;94711.34;;;10.46;50.94
6393;BME280;3229;42.674;23.282;2023-04-08T02:57:36;94715.50;;;10.47;51.06
6393;BME280;3229;42.674;23.282;2023-04-08T03:00:04;94718.88;;;10.47;50.94
6393;BME280;3229;42.674;23.282;2023-04-08T03:02:31;94720.47;;;10.48;50.83
6393;BME280;3229;42.674;23.282;2023-04-08T03:04:58;94726.53;;;10.47;51.02
6393;BME280;3229;42.674;23.282;2023-04-08T03:07:26;94720.78;;;10.45;50.93
6393;BME280;3229;42.674;23.282;2023-04-08T03:09:53;94727.34;;;10.48;50.92
6393;BME280;3229;42.674;23.282;2023-04-08T03:12:20;94720.47;;;10.48;50.80
6393;BME280;3229;42.674;23.282;2023-04-08T03:14:47;94698.84;;;10.33;51.03
6393;BME280;3229;42.674;23.282;2023-04-08T03:17:14;94720.88;;;10.44;50.91
6393;BME280;3229;42.674;23.282;2023-04-08T03:19:41;94713.09;;;10.45;50.97
6393;BME280;3229;42.674;23.282;2023-04-08T03:22:07;94711.06;;;10.39;51.08
6393;BME280;3229;42.674;23.282;2023-04-08T03:24:36;94721.69;;;10.44;51.24
6393;BME280;3229;42.674;23.282;2023-04-08T03:27:03;94720.88;;;10.44;51.11
6393;BME280;3229;42.674;23.282;2023-04-08T03:29:30;94708.78;;;10.36;51.25
6393;BME280;3229;42.674;23.282;2023-04-08T03:31:57;94723.44;;;10.44;51.21
6393;BME280;3229;42.674;23.282;2023-04-08T03:34:23;94726.28;;;10.41;51.08
6393;BME280;3229;42.674;23.282;2023-04-08T03:36:50;94725.19;;;10.43;51.38
6393;BME280;3229;42.674;23.282;2023-04-08T03:39:18;94725.19;;;10.43;51.04
6393;BME280;3229;42.674;23.282;2023-04-08T03:41:46;94727.09;;;10.41;51.31
6393;BME280;3229;42.674;23.282;2023-04-08T03:44:13;94723.84;;;10.39;51.23
6393;BME280;3229;42.674;23.282;2023-04-08T03:46:40;94721.28;;;10.39;51.41
6393;BME280;3229;42.674;23.282;2023-04-08T03:49:06;94718.63;;;10.41;51.32
6393;BME280;3229;42.674;23.282;2023-04-08T03:51:33;94726.41;;;10.39;51.40
6393;BME280;3229;42.674;23.282;2023-04-08T03:54:00;94719.84;;;10.37;51.33
6393;BME280;3229;42.674;23.282;2023-04-08T03:56:27;94718.88;;;10.38;51.37
6393;BME280;3229;42.674;23.282;2023-04-08T03:58:55;94722.25;;;10.38;51.49
6393;BME280;3229;42.674;23.282;2023-04-08T04:01:22;94725.75;;;10.37;51.29
6393;BME280;3229;42.674;23.282;2023-04-08T04:03:48;94723.19;;;10.37;51.42
6393;BME280;3229;42.674;23.282;2023-04-08T04:06:15;94723.19;;;10.37;51.42
6393;BME280;3229;42.674;23.282;2023-04-08T04:08:42;94717.41;;;10.35;51.55
6393;BME280;3229;42.674;23.282;2023-04-08T04:11:09;94723.19;;;10.37;51.59
6393;BME280;3229;42.674;23.282;2023-04-08T04:13:36;94721.28;;;10.39;51.46
6393;BME280;3229;42.674;23.282;2023-04-08T04:16:04;94721.44;;;10.38;51.51
6393;BME280;3229;42.674;23.282;2023-04-08T04:18:31;94726.56;;;10.38;51.63
6393;BME280;3229;42.674;23.282;2023-04-08T04:20:58;94725.06;;;10.35;51.48
6393;BME280;3229;42.674;23.282;2023-04-08T04:23:24;94731.53;;;10.39;51.60
6393;BME280;3229;42.674;23.282;2023-04-08T04:25:51;94726.97;;;10.33;51.58
6393;BME280;3229;42.674;23.282;2023-04-08T04:28:18;94734.88;;;10.40;51.63
6393;BME280;3229;42.674;23.282;2023-04-08T04:30:45;94736.53;;;10.41;51.66
6393;BME280;3229;42.674;23.282;2023-04-08T04:33:13;94737.44;;;10.40;51.64
6393;BME280;3229;42.674;23.282;2023-04-08T04:35:40;94737.31;;;10.41;51.67
6393;BME280;3229;42.674;23.282;2023-04-08T04:38:07;94738.13;;;10.42;51.72
6393;BME280;3229;42.674;23.282;2023-04-08T04:40:36;94737.19;;;10.43;51.72
6393;BME280;3229;42.674;23.282;2023-04-08T04:43:03;94737.03;;;10.44;51.74
6393;BME280;3229;42.674;23.282;2023-04-08T04:45:30;94734.47;;;10.44;51.82
6393;BME280;3229;42.674;23.282;2023-04-08T04:47:57;94732.88;;;10.43;51.80
6393;BME280;3229;42.674;23.282;2023-04-08T04:50:25;94734.34;;;10.46;51.77
6393;BME280;3229;42.674;23.282;2023-04-08T04:52:52;94741.88;;;10.47;51.70
6393;BME280;3229;42.674;23.282;2023-04-08T04:55:19;94737.56;;;10.48;51.66
6393;BME280;3229;42.674;23.282;2023-04-08T04:57:46;94739.88;;;10.51;51.55
6393;BME280;3229;42.674;23.282;2023-04-08T05:00:14;94742.28;;;10.52;51.65
6393;BME280;3229;42.674;23.282;2023-04-08T05:02:41;94746.97;;;10.57;51.75
6393;BME280;3229;42.674;23.282;2023-04-08T05:05:08;94748.47;;;10.60;51.51
6393;BME280;3229;42.674;23.282;2023-04-08T05:07:36;94744.84;;;10.62;51.52
6393;BME280;3229;42.674;23.282;2023-04-08T05:10:04;94747.78;;;10.67;51.43
6393;BME280;3229;42.674;23.282;2023-04-08T05:12:31;94744.28;;;10.68;51.33
6393;BME280;3229;42.674;23.282;2023-04-08T05:14:58;94743.72;;;10.74;51.20
6393;BME280;3229;42.674;23.282;2023-04-08T05:17:25;94750.72;;;10.82;51.52
6393;BME280;3229;42.674;23.282;2023-04-08T05:19:51;94752.06;;;10.86;51.18
6393;BME280;3229;42.674;23.282;2023-04-08T05:22:18;94749.63;;;10.94;51.18
6393;BME280;3229;42.674;23.282;2023-04-08T05:24:47;94750.81;;;11.00;51.31
6393;BME280;3229;42.674;23.282;2023-04-08T05:27:13;94740.03;;;11.06;50.83
6393;BME280;3229;42.674;23.282;2023-04-08T05:29:40;94744.03;;;11.18;50.88
6393;BME280;3229;42.674;23.282;2023-04-08T05:32:07;94744.00;;;11.28;50.91
6393;BME280;3229;42.674;23.282;2023-04-08T05:34:34;94747.16;;;11.40;50.52
6393;BME280;3229;42.674;23.282;2023-04-08T05:37:00;94736.38;;;11.46;50.37
6393;BME280;3229;42.674;23.282;2023-04-08T05:39:27;94748.94;;;11.67;50.06
6393;BME280;3229;42.674;23.282;2023-04-08T05:41:55;94749.41;;;11.80;50.13
6393;BME280;3229;42.674;23.282;2023-04-08T05:44:22;94744.94;;;11.92;49.90
6393;BME280;3229;42.674;23.282;2023-04-08T05:46:49;94739.94;;;12.08;49.62
6393;BME280;3229;42.674;23.282;2023-04-08T05:49:16;94749.19;;;12.19;49.58
6393;BME280;3229;42.674;23.282;2023-04-08T05:51:42;94746.56;;;12.28;49.46
6393;BME280;3229;42.674;23.282;2023-04-08T05:54:09;94744.59;;;12.40;49.29
6393;BME280;3229;42.674;23.282;2023-04-08T05:56:36;94741.94;;;12.50;49.14
6393;BME280;3229;42.674;23.282;2023-04-08T05:59:04;94744.56;;;12.58;48.97
6393;BME280;3229;42.674;23.282;2023-04-08T06:01:31;94740.31;;;12.67;48.99
6393;BME280;3229;42.674;23.282;2023-04-08T06:03:58;94736.31;;;12.72;48.82
6393;BME280;3229;42.674;23.282;2023-04-08T06:06:25;94732.22;;;12.79;48.82
6393;BME280;3229;42.674;23.282;2023-04-08T06:08:52;94739.97;;;12.88;48.68
6393;BME280;3229;42.674;23.282;2023-04-08T06:11:18;94726.53;;;12.94;48.71
6393;BME280;3229;42.674;23.282;2023-04-08T06:13:45;94739.75;;;13.07;48.34
6393;BME280;3229;42.674;23.282;2023-04-08T06:16:15;94739.81;;;13.15;48.57
6393;BME280;3229;42.674;23.282;2023-04-08T06:18:42;94733.94;;;13.23;48.26
6393;BME280;3229;42.674;23.282;2023-04-08T06:21:09;94742.53;;;13.40;47.97
6393;BME280;3229;42.674;23.282;2023-04-08T06:23:36;94742.75;;;13.54;47.91
6393;BME280;3229;42.674;23.282;2023-04-08T06:26:03;94741.72;;;13.73;47.57
6393;BME280;3229;42.674;23.282;2023-04-08T06:28:30;94739.03;;;13.91;47.50
6393;BME280;3229;42.674;23.282;2023-04-08T06:30:57;94745.03;;;14.16;47.10
6393;BME280;3229;42.674;23.282;2023-04-08T06:33:26;94738.44;;;14.46;48.35
6393;BME280;3229;42.674;23.282;2023-04-08T06:36:00;94744.25;;;14.97;65.06
6393;BME280;3229;42.674;23.282;2023-04-08T06:38:28;94745.06;;;15.70;65.28
6393;BME280;3229;42.674;23.282;2023-04-08T06:40:54;94742.59;;;16.39;63.20
6393;BME280;3229;42.674;23.282;2023-04-08T06:43:21;94745.19;;;16.99;61.68
6393;BME280;3229;42.674;23.282;2023-04-08T06:45:48;94747.72;;;17.52;60.11
6393;BME280;3229;42.674;23.282;2023-04-08T06:48:16;94747.34;;;17.99;58.97
6393;BME280;3229;42.674;23.282;2023-04-08T06:50:44;94720.13;;;18.25;57.66
6393;BME280;3229;42.674;23.282;2023-04-08T06:53:11;94747.03;;;18.67;56.40
6393;BME280;3229;42.674;23.282;2023-04-08T06:55:38;94745.25;;;18.89;55.55
6393;BME280;3229;42.674;23.282;2023-04-08T06:58:05;94741.81;;;19.10;54.68
6393;BME280;3229;42.674;23.282;2023-04-08T07:00:32;94749.91;;;19.28;53.91
6393;BME280;3229;42.674;23.282;2023-04-08T07:02:59;94748.84;;;19.44;53.33
6393;BME280;3229;42.674;23.282;2023-04-08T07:05:26;94741.72;;;19.59;52.80
6393;BME280;3229;42.674;23.282;2023-04-08T07:07:54;94742.00;;;19.71;52.30
6393;BME280;3229;42.674;23.282;2023-04-08T07:10:21;94748.25;;;19.83;51.88
6393;BME280;3229;42.674;23.282;2023-04-08T07:12:48;94751.88;;;19.89;51.34
6393;BME280;3229;42.674;23.282;2023-04-08T07:15:15;94753.50;;;19.96;51.13
6393;BME280;3229;42.674;23.282;2023-04-08T07:17:42;94755.31;;;20.02;50.91
6393;BME280;3229;42.674;23.282;2023-04-08T07:20:10;94759.31;;;20.12;50.75
6393;BME280;3229;42.674;23.282;2023-04-08T07:22:38;94760.38;;;20.17;50.74
6393;BME280;3229;42.674;23.282;2023-04-08T07:25:06;94763.75;;;20.24;50.79
6393;BME280;3229;42.674;23.282;2023-04-08T07:27:34;94757.81;;;20.30;50.28
6393;BME280;3229;42.674;23.282;2023-04-08T07:30:01;94762.19;;;20.37;50.40
6393;BME280;3229;42.674;23.282;2023-04-08T07:32:27;94764.41;;;20.40;50.00
6393;BME280;3229;42.674;23.282;2023-04-08T07:34:54;94770.44;;;20.47;49.95
6393;BME280;3229;42.674;23.282;2023-04-08T07:37:21;94774.06;;;20.52;50.05
6393;BME280;3229;42.674;23.282;2023-04-08T07:39:48;94764.50;;;20.66;50.50
6393;BME280;3229;42.674;23.282;2023-04-08T07:42:16;94773.91;;;20.87;50.17
6393;BME280;3229;42.674;23.282;2023-04-08T07:44:44;94770.94;;;21.03;49.59
6393;BME280;3229;42.674;23.282;2023-04-08T07:47:11;94774.72;;;21.21;49.09
6393;BME280;3229;42.674;23.282;2023-04-08T07:49:38;94769.53;;;21.34;48.65
6393;BME280;3229;42.674;23.282;2023-04-08T07:52:05;94783.53;;;21.46;48.59
6393;BME280;3229;42.674;23.282;2023-04-08T07:54:32;94782.13;;;21.44;47.92
6393;BME280;3229;42.674;23.282;2023-04-08T07:56:59;94791.16;;;21.35;47.33
6393;BME280;3229;42.674;23.282;2023-04-08T07:59:28;94785.72;;;21.23;47.14
6393;BME280;3229;42.674;23.282;2023-04-08T08:01:55;94770.13;;;21.03;46.68
6393;BME280;3229;42.674;23.282;2023-04-08T08:04:22;94802.72;;;21.05;46.30
6393;BME280;3229;42.674;23.282;2023-04-08T08:06:50;94786.09;;;20.80;46.04
6393;BME280;3229;42.674;23.282;2023-04-08T08:09:16;94795.09;;;20.77;45.81
6393;BME280;3229;42.674;23.282;2023-04-08T08:11:43;94792.47;;;20.71;45.30
6393;BME280;3229;42.674;23.282;2023-04-08T08:14:10;94797.28;;;20.61;45.20
6393;BME280;3229;42.674;23.282;2023-04-08T08:16:39;94789.81;;;20.44;45.20
6393;BME280;3229;42.674;23.282;2023-04-08T08:19:07;94796.94;;;20.29;45.33
6393;BME280;3229;42.674;23.282;2023-04-08T08:21:35;94797.91;;;20.15;45.22
6393;BME280;3229;42.674;23.282;2023-04-08T08:24:03;94802.09;;;20.09;45.30
6393;BME280;3229;42.674;23.282;2023-04-08T08:26:30;94807.84;;;20.04;45.05
6393;BME280;3229;42.674;23.282;2023-04-08T08:28:57;94801.25;;;20.02;44.90
6393;BME280;3229;42.674;23.282;2023-04-08T08:31:24;94803.25;;;20.00;44.82
6393;BME280;3229;42.674;23.282;2023-04-08T08:33:52;94796.22;;;19.94;44.49
6393;BME280;3229;42.674;23.282;2023-04-08T08:36:19;94800.38;;;19.88;44.60
6393;BME280;3229;42.674;23.282;2023-04-08T08:38:46;94793.56;;;19.80;44.51
6393;BME280;3229;42.674;23.282;2023-04-08T08:41:13;94794.91;;;19.70;44.57
6393;BME280;3229;42.674;23.282;2023-04-08T08:43:40;94796.44;;;19.64;44.49
6393;BME280;3229;42.674;23.282;2023-04-08T08:46:09;94798.78;;;19.59;44.45
6393;BME280;3229;42.674;23.282;2023-04-08T08:48:36;94783.50;;;19.43;44.56
6393;BME280;3229;42.674;23.282;2023-04-08T08:51:08;94786.53;;;19.46;44.25
6393;BME280;3229;42.674;23.282;2023-04-08T08:53:35;94797.53;;;19.48;44.10
6393;BME280;3229;42.674;23.282;2023-04-08T08:56:03;94798.91;;;19.44;44.12
6393;BME280;3229;42.674;23.282;2023-04-08T08:58:30;94801.28;;;19.39;43.91
6393;BME280;3229;42.674;23.282;2023-04-08T09:00:57;94798.41;;;19.34;43.86
6393;BME280;3229;42.674;23.282;2023-04-08T09:03:26;94800.00;;;19.28;43.92
6393;BME280;3229;42.674;23.282;2023-04-08T09:05:54;94795.00;;;19.27;43.77
6393;BME280;3229;42.674;23.282;2023-04-08T09:08:34;94795.16;;;19.25;43.65
6393;BME280;3229;42.674;23.282;2023-04-08T09:11:12;94800.06;;;19.35;43.54
6393;BME280;3229;42.674;23.282;2023-04-08T09:13:39;94795.94;;;19.47;43.35
6393;BME280;3229;42.674;23.282;2023-04-08T09:16:08;94799.25;;;19.63;43.18
6393;BME280;3229;42.674;23.282;2023-04-08T09:18:36;94803.75;;;19.82;42.97
6393;BME280;3229;42.674;23.282;2023-04-08T09:21:04;94717.72;;;19.50;42.71
6393;BME280;3229;42.674;23.282;2023-04-08T09:23:40;94792.91;;;20.20;42.53
6393;BME280;3229;42.674;23.282;2023-04-08T09:26:09;94800.41;;;20.43;42.32
6393;BME280;3229;42.674;23.282;2023-04-08T09:28:36;94800.69;;;20.61;42.12
6393;BME280;3229;42.674;23.282;2023-04-08T09:31:18;94784.31;;;20.74;41.76
6393;BME280;3229;42.674;23.282;2023-04-08T09:33:45;94791.91;;;20.89;41.66
6393;BME280;3229;42.674;23.282;2023-04-08T09:36:13;94787.31;;;21.04;41.62
6393;BME280;3229;42.674;23.282;2023-04-08T09:38:41;94777.31;;;21.21;41.31
6393;BME280;3229;42.674;23.282;2023-04-08T09:41:12;94779.31;;;21.32;41.08
6393;BME280;3229;42.674;23.282;2023-04-08T09:43:41;94771.13;;;21.35;41.09
6393;BME280;3229;42.674;23.282;2023-04-08T09:46:13;94768.53;;;21.35;40.79
6393;BME280;3229;42.674;23.282;2023-04-08T09:48:46;94761.91;;;21.39;41.07
6393;BME280;3229;42.674;23.282;2023-04-08T09:51:15;94745.69;;;21.30;40.71
6393;BME280;3229;42.674;23.282;2023-04-08T09:53:48;94771.31;;;21.47;40.93
6393;BME280;3229;42.674;23.282;2023-04-08T09:56:19;94770.91;;;21.43;40.80
6393;BME280;3229;42.674;23.282;2023-04-08T09:58:51;94758.34;;;21.34;40.77
6393;BME280;3229;42.674;23.282;2023-04-08T10:01:24;94759.94;;;21.35;40.63
6393;BME280;3229;42.674;23.282;2023-04-08T10:03:53;94763.72;;;21.32;40.52
6393;BME280;3229;42.674;23.282;2023-04-08T10:06:27;94763.72;;;21.25;40.33
6393;BME280;3229;42.674;23.282;2023-04-08T10:08:57;94741.91;;;21.00;40.48
6393;BME280;3229;42.674;23.282;2023-04-08T10:11:24;94757.72;;;21.05;40.63
6393;BME280;3229;42.674;23.282;2023-04-08T10:13:51;94760.91;;;21.00;40.63
6393;BME280;3229;42.674;23.282;2023-04-08T10:16:23;94756.91;;;20.98;40.45
6393;BME280;3229;42.674;23.282;2023-04-08T10:18:51;94750.50;;;20.94;40.49
6393;BME280;3229;42.674;23.282;2023-04-08T10:21:36;94751.34;;;20.94;40.37
6393;BME280;3229;42.674;23.282;2023-04-08T10:24:09;94757.69;;;20.85;40.38
6393;BME280;3229;42.674;23.282;2023-04-08T10:26:40;94752.72;;;20.77;40.66
6393;BME280;3229;42.674;23.282;2023-04-08T10:29:34;94754.09;;;20.66;40.49
6393;BME280;3229;42.674;23.282;2023-04-08T10:32:01;94749.72;;;20.60;40.63
6393;BME280;3229;42.674;23.282;2023-04-08T10:34:28;94747.69;;;20.56;40.69
6393;BME280;3229;42.674;23.282;2023-04-08T10:36:56;94748.69;;;20.48;40.62
6393;BME280;3229;42.674;23.282;2023-04-08T10:39:29;94745.22;;;20.41;40.74
6393;BME280;3229;42.674;23.282;2023-04-08T10:41:56;94747.41;;;20.37;40.54
6393;BME280;3229;42.674;23.282;2023-04-08T10:44:24;94734.25;;;20.39;40.61
6393;BME280;3229;42.674;23.282;2023-04-08T10:46:52;94734.25;;;20.45;40.42
6393;BME280;3229;42.674;23.282;2023-04-08T10:49:19;94728.31;;;20.58;40.40
6393;BME280;3229;42.674;23.282;2023-04-08T10:51:47;94727.53;;;20.64;40.11
6393;BME280;3229;42.674;23.282;2023-04-08T10:54:14;94724.31;;;20.62;40.19
6393;BME280;3229;42.674;23.282;2023-04-08T10:56:47;94715.94;;;20.60;40.10
6393;BME280;3229;42.674;23.282;2023-04-08T10:59:17;94723.72;;;20.67;40.03
6393;BME280;3229;42.674;23.282;2023-04-08T11:01:45;94721.91;;;20.67;39.92
6393;BME280;3229;42.674;23.282;2023-04-08T11:04:16;94710.13;;;20.65;39.98
6393;BME280;3229;42.674;23.282;2023-04-08T11:06:45;94710.31;;;20.57;39.85
6393;BME280;3229;42.674;23.282;2023-04-08T11:09:13;94707.91;;;20.48;40.00
6393;BME280;3229;42.674;23.282;2023-04-08T11:11:41;94710.28;;;20.43;40.01
6393;BME280;3229;42.674;23.282;2023-04-08T11:14:10;94709.06;;;20.39;40.05
6393;BME280;3229;42.674;23.282;2023-04-08T11:16:38;94687.47;;;20.32;39.81
6393;BME280;3229;42.674;23.282;2023-04-08T11:19:05;94702.28;;;20.45;39.84
6393;BME280;3229;42.674;23.282;2023-04-08T11:21:35;94700.94;;;20.56;39.81
6393;BME280;3229;42.674;23.282;2023-04-08T11:24:06;94669.91;;;20.47;39.79
6393;BME280;3229;42.674;23.282;2023-04-08T11:26:35;94690.53;;;20.69;39.63
6393;BME280;3229;42.674;23.282;2023-04-08T11:29:03;94681.13;;;20.74;39.26
6393;BME280;3229;42.674;23.282;2023-04-08T11:31:32;94689.13;;;20.79;39.48
6393;BME280;3229;42.674;23.282;2023-04-08T11:34:00;94674.53;;;20.78;39.32
6393;BME280;3229;42.674;23.282;2023-04-08T11:36:28;94672.34;;;20.75;39.25
6393;BME280;3229;42.674;23.282;2023-04-08T11:38:55;94682.16;;;20.73;39.33
6393;BME280;3229;42.674;23.282;2023-04-08T11:41:21;94663.53;;;20.70;39.36
6393;BME280;3229;42.674;23.282;2023-04-08T11:43:53;94674.94;;;20.69;39.36
6393;BME280;3229;42.674;23.282;2023-04-08T11:46:20;94666.56;;;20.73;38.93
6393;BME280;3229;42.674;23.282;2023-04-08T11:49:06;94669.53;;;20.84;38.94
6393;BME280;3229;42.674;23.282;2023-04-08T11:51:52;94662.91;;;20.81;38.70
6393;BME280;3229;42.674;23.282;2023-04-08T11:54:26;94656.94;;;20.67;38.98
6393;BME280;3229;42.674;23.282;2023-04-08T11:56:53;94657.97;;;20.60;38.92
6393;BME280;3229;42.674;23.282;2023-04-08T11:59:22;94594.56;;;20.01;39.03
6393;BME280;3229;42.674;23.282;2023-04-08T12:01:50;94662.91;;;20.35;39.08
6393;BME280;3229;42.674;23.282;2023-04-08T12:04:19;94656.69;;;20.22;39.25
6393;BME280;3229;42.674;23.282;2023-04-08T12:06:46;94645.50;;;20.09;39.09
6393;BME280;3229;42.674;23.282;2023-04-08T12:09:14;94653.47;;;20.00;38.91
6393;BME280;3229;42.674;23.282;2023-04-08T12:11:41;94648.66;;;19.91;39.22
6393;BME280;3229;42.674;23.282;2023-04-08T12:14:08;94643.66;;;19.83;39.25
6393;BME280;3229;42.674;23.282;2023-04-08T12:16:34;94649.19;;;19.73;39.16
6393;BME280;3229;42.674;23.282;2023-04-08T12:19:01;94649.38;;;19.65;39.22
6393;BME280;3229;42.674;23.282;2023-04-08T12:21:30;94648.09;;;19.54;39.43
6393;BME280;3229;42.674;23.282;2023-04-08T12:23:58;94636.50;;;19.43;39.44
6393;BME280;3229;42.674;23.282;2023-04-08T12:26:25;94640.69;;;19.44;39.33
6393;BME280;3229;42.674;23.282;2023-04-08T12:28:52;94640.28;;;19.41;39.37
6393;BME280;3229;42.674;23.282;2023-04-08T12:31:19;94641.06;;;19.35;39.47
6393;BME280;3229;42.674;23.282;2023-04-08T12:33:47;94625.44;;;19.21;39.48
6393;BME280;3229;42.674;23.282;2023-04-08T12:36:13;94626.81;;;19.17;39.54
6393;BME280;3229;42.674;23.282;2023-04-08T12:38:43;94623.59;;;19.09;39.69
6393;BME280;3229;42.674;23.282;2023-04-08T12:41:10;94599.13;;;18.90;39.81
6393;BME280;3229;42.674;23.282;2023-04-08T12:43:37;94623.47;;;18.95;39.70
6393;BME280;3229;42.674;23.282;2023-04-08T12:46:04;94621.06;;;18.87;39.95
6393;BME280;3229;42.674;23.282;2023-04-08T12:48:31;94611.91;;;18.63;39.91
6393;BME280;3229;42.674;23.282;2023-04-08T12:50:58;94636.69;;;18.72;39.98
6393;BME280;3229;42.674;23.282;2023-04-08T12:53:24;94643.78;;;18.64;40.09
6393;BME280;3229;42.674;23.282;2023-04-08T12:55:53;94649.28;;;18.54;40.12
6393;BME280;3229;42.674;23.282;2023-04-08T12:58:22;94660.59;;;18.46;40.31
6393;BME280;3229;42.674;23.282;2023-04-08T13:00:49;94663.69;;;18.35;40.39
6393;BME280;3229;42.674;23.282;2023-04-08T13:03:16;94657.22;;;18.24;40.59
6393;BME280;3229;42.674;23.282;2023-04-08T13:05:43;94648.84;;;18.22;40.55
6393;BME280;3229;42.674;23.282;2023-04-08T13:08:10;94647.97;;;18.15;40.65
6393;BME280;3229;42.674;23.282;2023-04-08T13:10:37;94645.75;;;18.12;40.71
6393;BME280;3229;42.674;23.282;2023-04-08T13:13:05;94642.03;;;18.21;40.82
6393;BME280;3229;42.674;23.282;2023-04-08T13:15:32;94642.16;;;18.35;40.83